createdAt,value
2022-09-16T00:00:03.449Z,98963.56
2022-09-16T00:01:03.448Z,98960.00
2022-09-16T00:01:43.528Z,98963.09
2022-09-16T00:02:23.410Z,98957.09
2022-09-16T00:03:11.426Z,98965.25
2022-09-16T00:03:45.603Z,98964.25
2022-09-16T00:04:32.373Z,98959.16
2022-09-16T00:05:06.945Z,98957.84
2022-09-16T00:05:59.366Z,98960.94
2022-09-16T00:06:33.092Z,98956.66
2022-09-16T00:07:20.383Z,98965.53
2022-09-16T00:07:55.680Z,98969.28
2022-09-16T00:08:36.441Z,98966.66
2022-09-16T00:09:10.426Z,98973.97
2022-09-16T00:09:44.077Z,98960.84
2022-09-16T00:10:25.362Z,98964.72
2022-09-16T00:10:59.410Z,98969.53
2022-09-16T00:11:36.935Z,98974.13
2022-09-16T00:12:18.361Z,98969.53
2022-09-16T00:12:59.483Z,98971.72
2022-09-16T00:13:39.436Z,98974.13
2022-09-16T00:14:20.513Z,98970.69
2022-09-16T00:15:01.361Z,98976.28
2022-09-16T00:15:41.516Z,98981.38
2022-09-16T00:16:31.456Z,98976.53
2022-09-16T00:17:11.428Z,98973.16
2022-09-16T00:17:51.446Z,98986.94
2022-09-16T00:18:31.451Z,98981.53
2022-09-16T00:19:11.400Z,98988.28
2022-09-16T00:19:52.726Z,98979.19
2022-09-16T00:20:34.398Z,98975.94
2022-09-16T00:21:16.470Z,98983.25
2022-09-16T00:21:56.392Z,98965.09
2022-09-16T00:22:37.459Z,98974.91
2022-09-16T00:23:18.362Z,98986.91
2022-09-16T00:23:58.430Z,98974.66
2022-09-16T00:24:38.366Z,98988.50
2022-09-16T00:25:19.426Z,98969.78
2022-09-16T00:26:01.406Z,98987.84
2022-09-16T00:26:41.442Z,98988.25
2022-09-16T00:27:21.362Z,98987.63
2022-09-16T00:28:01.566Z,98987.44
2022-09-16T00:28:41.333Z,98988.94
2022-09-16T00:29:21.377Z,98982.22
2022-09-16T00:30:01.405Z,98988.59
2022-09-16T00:30:42.494Z,98989.31
2022-09-16T00:31:23.385Z,98983.94
2022-09-16T00:32:03.413Z,98996.66
2022-09-16T00:32:43.591Z,98992.16
2022-09-16T00:33:24.425Z,98982.88
2022-09-16T00:34:04.365Z,98995.25
2022-09-16T00:34:44.469Z,98989.81
2022-09-16T00:35:24.390Z,98997.28
2022-09-16T00:36:20.437Z,98989.81
2022-09-16T00:37:00.359Z,98977.44
2022-09-16T00:37:40.432Z,98990.41
2022-09-16T00:38:20.323Z,98992.47
2022-09-16T00:39:01.427Z,98986.91
2022-09-16T00:39:43.332Z,98994.22
2022-09-16T00:40:23.464Z,98980.69
2022-09-16T00:41:03.370Z,98994.53
2022-09-16T00:41:44.406Z,98994.53
2022-09-16T00:42:25.334Z,98988.72
2022-09-16T00:43:06.387Z,99002.47
2022-09-16T00:44:09.332Z,99000.47
2022-09-16T00:45:09.365Z,98999.53
2022-09-16T00:45:53.394Z,98975.56
2022-09-16T00:46:41.444Z,99000.06
2022-09-16T00:47:15.474Z,98996.00
2022-09-16T00:47:56.256Z,98989.00
2022-09-16T00:48:37.471Z,98996.59
2022-09-16T00:49:22.456Z,98993.81
2022-09-16T00:50:01.495Z,99000.16
2022-09-16T00:50:53.389Z,99000.50
2022-09-16T00:51:27.428Z,99007.75
2022-09-16T00:52:10.378Z,99001.00
2022-09-16T00:52:51.456Z,99007.13
2022-09-16T00:53:40.706Z,99015.06
2022-09-16T00:54:23.421Z,99005.31
2022-09-16T00:55:03.298Z,99000.69
2022-09-16T00:55:44.435Z,98999.00
2022-09-16T00:56:26.341Z,99009.66
2022-09-16T00:57:07.474Z,99003.59
2022-09-16T00:57:48.357Z,99008.94
2022-09-16T00:59:02.204Z,99012.34
2022-09-16T00:59:46.330Z,99005.88
2022-09-16T01:00:27.443Z,99010.28
2022-09-16T01:01:08.396Z,99003.50
2022-09-16T01:01:49.625Z,99002.69
2022-09-16T01:02:36.336Z,99000.03
2022-09-16T01:03:18.352Z,98991.41
2022-09-16T01:04:33.291Z,98992.06
2022-09-16T01:05:34.330Z,99005.56
2022-09-16T01:06:29.329Z,99005.91
2022-09-16T01:07:23.319Z,99002.88
2022-09-16T01:08:18.436Z,99014.75
2022-09-16T01:09:12.308Z,99011.03
2022-09-16T01:10:06.319Z,99010.03
2022-09-16T01:11:00.291Z,98998.78
2022-09-16T01:11:54.371Z,99007.22
2022-09-16T01:12:49.318Z,99011.00
2022-09-16T01:13:36.386Z,99009.97
2022-09-16T01:14:29.975Z,99006.53
2022-09-16T01:15:18.316Z,99007.88
2022-09-16T01:16:13.512Z,98977.63
2022-09-16T01:17:43.330Z,99008.84
2022-09-16T01:18:53.358Z,99004.50
2022-09-16T01:20:31.299Z,99013.25
2022-09-16T01:21:31.287Z,99025.00
2022-09-16T01:23:02.356Z,99024.47
2022-09-16T01:24:48.358Z,99026.69
2022-09-16T01:26:20.304Z,99028.94
2022-09-16T01:27:39.339Z,99034.16
2022-09-16T01:29:02.313Z,99030.47
2022-09-16T01:30:52.415Z,99029.31
2022-09-16T01:31:51.355Z,99000.38
2022-09-16T01:33:16.395Z,99004.28
2022-09-16T01:34:33.328Z,99001.22
2022-09-16T01:35:52.383Z,99011.22
2022-09-16T01:37:19.338Z,99003.75
2022-09-16T01:38:54.386Z,99009.13
2022-09-16T01:40:28.425Z,99014.03
2022-09-16T01:41:41.330Z,99018.09
2022-09-16T01:42:50.394Z,99013.59
2022-09-16T01:44:01.327Z,99020.31
2022-09-16T01:45:17.505Z,99021.22
2022-09-16T01:46:11.384Z,99014.63
2022-09-16T01:47:05.296Z,99017.53
2022-09-16T01:47:56.196Z,99020.50
2022-09-16T01:49:05.299Z,99018.41
2022-09-16T01:50:07.147Z,99018.75
2022-09-16T01:51:24.285Z,99016.44
2022-09-16T01:52:40.387Z,99019.97
2022-09-16T01:53:43.355Z,99013.09
2022-09-16T01:54:39.260Z,99026.09
2022-09-16T01:55:46.325Z,99016.81
2022-09-16T01:56:36.230Z,99028.69
2022-09-16T01:57:28.423Z,99018.19
2022-09-16T01:58:40.292Z,99011.94
2022-09-16T01:59:28.336Z,99022.91
2022-09-16T02:00:21.240Z,99023.47
2022-09-16T02:01:11.348Z,98989.97
2022-09-16T02:02:07.451Z,99023.44
2022-09-16T02:03:02.514Z,99022.47
2022-09-16T02:03:46.295Z,99009.75
2022-09-16T02:04:53.315Z,99024.34
2022-09-16T02:05:56.268Z,99020.28
2022-09-16T02:06:37.313Z,99032.81
2022-09-16T02:07:18.254Z,99017.25
2022-09-16T02:08:08.320Z,99020.66
2022-09-16T02:09:09.278Z,99028.59
2022-09-16T02:09:58.354Z,99017.31
2022-09-16T02:10:48.320Z,99033.03
2022-09-16T02:11:29.442Z,99028.16
2022-09-16T02:12:15.272Z,99030.81
2022-09-16T02:12:58.327Z,99013.56
2022-09-16T02:13:47.323Z,99032.53
2022-09-16T02:14:42.265Z,99027.25
2022-09-16T02:15:22.013Z,99033.88
2022-09-16T02:16:36.260Z,99013.25
2022-09-16T02:17:13.265Z,99025.75
2022-09-16T02:18:08.244Z,99030.84
2022-09-16T02:18:42.668Z,99026.75
2022-09-16T02:19:40.245Z,99013.97
2022-09-16T02:20:25.225Z,99024.59
2022-09-16T02:21:06.317Z,99033.22
2022-09-16T02:21:48.265Z,99009.22
2022-09-16T02:22:51.304Z,99035.56
2022-09-16T02:23:46.261Z,99034.59
2022-09-16T02:24:28.299Z,99033.56
2022-09-16T02:25:10.292Z,99022.72
2022-09-16T02:25:53.287Z,99000.06
2022-09-16T02:26:37.231Z,99026.09
2022-09-16T02:27:23.414Z,99015.28
2022-09-16T02:28:04.313Z,99018.66
2022-09-16T02:28:49.330Z,99018.69
2022-09-16T02:29:34.265Z,99014.09
2022-09-16T02:30:26.319Z,99007.53
2022-09-16T02:31:03.617Z,99024.63
2022-09-16T02:31:55.585Z,99011.59
2022-09-16T02:32:32.541Z,99011.75
2022-09-16T02:33:21.407Z,99027.53
2022-09-16T02:34:00.663Z,99017.34
2022-09-16T02:34:56.213Z,99012.59
2022-09-16T02:35:45.330Z,99011.06
2022-09-16T02:36:22.336Z,99008.38
2022-09-16T02:37:20.289Z,99023.44
2022-09-16T02:38:08.272Z,99027.81
2022-09-16T02:39:00.233Z,99018.53
2022-09-16T02:39:39.424Z,99014.66
2022-09-16T02:41:04.247Z,99026.97
2022-09-16T02:41:38.261Z,99030.72
2022-09-16T02:42:25.205Z,99013.09
2022-09-16T02:42:59.290Z,98997.41
2022-09-16T02:43:47.322Z,99014.78
2022-09-16T02:44:21.276Z,99026.00
2022-09-16T02:45:09.261Z,99024.41
2022-09-16T02:46:16.324Z,99035.56
2022-09-16T02:47:38.205Z,99022.03
2022-09-16T02:49:07.249Z,99029.50
2022-09-16T02:50:08.257Z,99036.97
2022-09-16T02:51:32.320Z,99032.59
2022-09-16T02:52:47.210Z,99030.53
2022-09-16T02:54:33.188Z,99033.22
2022-09-16T02:55:47.220Z,99031.22
2022-09-16T02:56:52.291Z,99031.88
2022-09-16T02:57:46.185Z,99041.00
2022-09-16T02:58:40.180Z,99041.00
2022-09-16T02:59:35.199Z,99041.19
2022-09-16T03:00:29.213Z,99049.16
2022-09-16T03:01:25.220Z,99048.31
2022-09-16T03:02:12.280Z,99030.91
2022-09-16T03:02:46.355Z,99033.28
2022-09-16T03:03:33.204Z,99034.97
2022-09-16T03:04:07.268Z,99033.78
2022-09-16T03:04:54.214Z,99046.13
2022-09-16T03:05:35.265Z,99043.75
2022-09-16T03:06:27.206Z,99039.69
2022-09-16T03:07:01.415Z,99039.69
2022-09-16T03:07:43.275Z,99039.34
2022-09-16T03:08:23.332Z,99042.38
2022-09-16T03:09:06.234Z,99041.34
2022-09-16T03:09:50.264Z,99045.75
2022-09-16T03:10:35.184Z,99037.16
2022-09-16T03:11:41.321Z,99034.94
2022-09-16T03:12:47.217Z,99041.19
2022-09-16T03:13:44.271Z,99030.53
2022-09-16T03:14:45.201Z,99025.44
2022-09-16T03:15:47.295Z,99043.03
2022-09-16T03:16:56.205Z,99040.00
2022-09-16T03:18:01.225Z,99039.34
2022-09-16T03:19:19.202Z,99045.59
2022-09-16T03:20:36.212Z,99039.69
2022-09-16T03:22:06.219Z,99023.78
2022-09-16T03:23:33.223Z,99035.63
2022-09-16T03:25:03.173Z,99034.59
2022-09-16T03:26:23.163Z,99037.81
2022-09-16T03:27:36.187Z,99020.72
2022-09-16T03:28:36.218Z,99022.88
2022-09-16T03:29:47.202Z,99018.84
2022-09-16T03:30:47.240Z,99018.31
2022-09-16T03:31:46.259Z,99018.91
2022-09-16T03:32:46.246Z,99019.69
2022-09-16T03:33:56.211Z,99017.97
2022-09-16T03:35:07.175Z,99033.72
2022-09-16T03:36:02.201Z,99027.09
2022-09-16T03:37:06.169Z,99028.78
2022-09-16T03:38:00.148Z,99022.00
2022-09-16T03:38:55.265Z,99028.09
2022-09-16T03:39:36.186Z,99034.19
2022-09-16T03:40:19.343Z,99005.44
2022-09-16T03:41:00.247Z,99027.88
2022-09-16T03:41:41.283Z,99009.31
2022-09-16T03:42:21.173Z,99005.28
2022-09-16T03:43:01.240Z,99033.16
2022-09-16T03:43:42.138Z,99028.78
2022-09-16T03:44:22.173Z,99016.78
2022-09-16T03:44:56.243Z,99022.72
2022-09-16T03:45:43.199Z,99032.34
2022-09-16T03:46:18.266Z,99025.44
2022-09-16T03:47:05.144Z,99024.72
2022-09-16T03:47:39.297Z,99025.81
2022-09-16T03:48:26.173Z,99045.91
2022-09-16T03:49:00.315Z,99034.72
2022-09-16T03:49:47.173Z,99035.19
2022-09-16T03:50:21.233Z,99041.25
2022-09-16T03:51:08.145Z,99049.56
2022-09-16T03:51:42.212Z,99036.03
2022-09-16T03:52:29.146Z,99035.31
2022-09-16T03:53:03.212Z,99050.41
2022-09-16T03:53:50.341Z,99040.09
2022-09-16T03:54:24.216Z,99041.63
2022-09-16T03:55:12.216Z,99040.09
2022-09-16T03:55:46.833Z,99047.03
2022-09-16T03:56:34.224Z,99038.91
2022-09-16T03:57:08.204Z,99040.28
2022-09-16T03:57:55.139Z,99044.47
2022-09-16T03:58:29.220Z,99039.19
2022-09-16T03:59:16.149Z,99038.22
2022-09-16T03:59:50.204Z,99029.44
2022-09-16T04:00:37.209Z,99047.56
2022-09-16T04:01:11.233Z,99046.03
2022-09-16T04:01:58.227Z,99045.91
2022-09-16T04:02:32.295Z,99040.00
2022-09-16T04:03:19.132Z,99029.16
2022-09-16T04:03:53.349Z,99044.72
2022-09-16T04:04:40.124Z,99051.00
2022-09-16T04:05:15.243Z,99043.69
2022-09-16T04:06:03.349Z,99050.97
2022-09-16T04:06:37.184Z,99044.72
2022-09-16T04:07:24.167Z,99018.38
2022-09-16T04:07:58.219Z,99049.44
2022-09-16T04:08:46.227Z,99033.94
2022-09-16T04:09:20.277Z,99054.22
2022-09-16T04:10:08.177Z,99046.44
2022-09-16T04:10:42.178Z,99048.78
2022-09-16T04:11:23.157Z,99049.81
2022-09-16T04:12:03.388Z,99052.38
2022-09-16T04:12:43.175Z,99051.88
2022-09-16T04:13:23.226Z,99041.03
2022-09-16T04:14:03.130Z,99047.44
2022-09-16T04:14:43.279Z,99051.88
2022-09-16T04:15:23.205Z,99027.72
2022-09-16T04:16:03.550Z,99040.38
2022-09-16T04:16:45.373Z,99041.38
2022-09-16T04:17:26.235Z,99038.38
2022-09-16T04:18:07.108Z,99049.19
2022-09-16T04:18:47.226Z,99033.94
2022-09-16T04:19:28.110Z,99036.13
2022-09-16T04:20:08.281Z,99039.19
2022-09-16T04:20:49.122Z,99034.63
2022-09-16T04:21:29.423Z,99032.94
2022-09-16T04:22:09.200Z,99037.47
2022-09-16T04:22:49.239Z,99046.97
2022-09-16T04:23:32.133Z,99024.81
2022-09-16T04:24:13.691Z,99042.38
2022-09-16T04:24:55.145Z,99047.66
2022-09-16T04:25:35.203Z,99040.88
2022-09-16T04:26:17.107Z,99042.72
2022-09-16T04:26:57.211Z,99050.00
2022-09-16T04:27:37.162Z,99027.34
2022-09-16T04:28:17.168Z,99031.78
2022-09-16T04:29:01.097Z,99047.00
2022-09-16T04:29:41.226Z,99051.56
2022-09-16T04:30:22.096Z,99041.44
2022-09-16T04:31:07.180Z,99028.19
2022-09-16T04:31:47.097Z,99027.56
2022-09-16T04:32:27.177Z,99033.97
2022-09-16T04:33:07.148Z,99046.16
2022-09-16T04:33:48.252Z,99048.00
2022-09-16T04:34:28.117Z,99046.63
2022-09-16T04:35:08.169Z,99048.50
2022-09-16T04:35:48.097Z,99043.09
2022-09-16T04:36:28.171Z,99051.88
2022-09-16T04:37:08.097Z,99045.44
2022-09-16T04:37:48.178Z,99043.38
2022-09-16T04:38:29.115Z,99037.16
2022-09-16T04:39:09.148Z,99049.47
2022-09-16T04:39:49.143Z,99042.75
2022-09-16T04:40:29.313Z,99036.50
2022-09-16T04:41:13.129Z,99045.47
2022-09-16T04:41:54.200Z,99056.78
2022-09-16T04:42:34.102Z,99042.91
2022-09-16T04:43:14.150Z,99053.25
2022-09-16T04:44:05.224Z,99045.47
2022-09-16T04:44:46.151Z,99042.91
2022-09-16T04:45:27.094Z,99056.28
2022-09-16T04:46:08.631Z,99041.72
2022-09-16T04:46:48.110Z,99046.31
2022-09-16T04:47:29.127Z,99046.84
2022-09-16T04:48:10.109Z,99036.16
2022-09-16T04:48:50.164Z,99040.09
2022-09-16T04:49:30.129Z,99062.06
2022-09-16T04:50:10.730Z,99053.59
2022-09-16T04:50:51.099Z,99050.50
2022-09-16T04:51:33.250Z,99047.16
2022-09-16T04:52:13.075Z,99047.34
2022-09-16T04:52:53.224Z,99040.09
2022-09-16T04:53:34.171Z,99044.84
2022-09-16T04:54:14.212Z,99049.56
2022-09-16T04:54:54.126Z,99054.28
2022-09-16T04:55:34.241Z,99045.13
2022-09-16T04:56:23.104Z,99047.22
2022-09-16T04:57:03.165Z,99051.25
2022-09-16T04:57:44.082Z,99046.16
2022-09-16T04:58:24.162Z,99040.78
2022-09-16T04:59:10.177Z,99051.25
2022-09-16T04:59:51.156Z,99043.13
2022-09-16T05:00:32.201Z,99048.72
2022-09-16T05:01:18.263Z,99045.81
2022-09-16T05:01:59.107Z,99038.72
2022-09-16T05:02:39.192Z,99032.84
2022-09-16T05:03:19.115Z,99041.25
2022-09-16T05:04:02.388Z,99048.53
2022-09-16T05:04:43.063Z,99042.44
2022-09-16T05:05:23.830Z,99053.63
2022-09-16T05:06:15.953Z,99047.22
2022-09-16T05:06:59.314Z,99048.06
2022-09-16T05:07:39.145Z,99040.09
2022-09-16T05:08:19.155Z,99048.19
2022-09-16T05:09:01.114Z,99045.69
2022-09-16T05:09:41.233Z,99037.06
2022-09-16T05:10:22.059Z,99052.78
2022-09-16T05:11:02.242Z,99040.78
2022-09-16T05:11:45.149Z,99041.78
2022-09-16T05:12:25.190Z,99038.06
2022-09-16T05:13:05.086Z,99050.25
2022-09-16T05:13:46.188Z,99029.28
2022-09-16T05:14:27.084Z,99041.63
2022-09-16T05:15:07.751Z,99040.91
2022-09-16T05:15:51.239Z,99032.84
2022-09-16T05:16:31.240Z,99035.00
2022-09-16T05:17:11.129Z,99051.75
2022-09-16T05:17:51.831Z,99054.78
2022-09-16T05:18:33.070Z,99046.19
2022-09-16T05:19:13.202Z,99035.34
2022-09-16T05:19:54.077Z,99046.50
2022-09-16T05:20:34.130Z,99057.00
2022-09-16T05:21:18.061Z,99044.81
2022-09-16T05:21:58.165Z,99062.75
2022-09-16T05:22:38.092Z,99055.63
2022-09-16T05:23:18.192Z,99044.63
2022-09-16T05:24:00.130Z,99050.22
2022-09-16T05:24:44.481Z,99045.81
2022-09-16T05:25:25.076Z,99046.50
2022-09-16T05:26:12.210Z,99048.19
2022-09-16T05:26:53.077Z,99047.16
2022-09-16T05:27:36.205Z,99043.41
2022-09-16T05:28:17.080Z,99044.94
2022-09-16T05:28:57.100Z,99035.47
2022-09-16T05:29:37.040Z,99050.50
2022-09-16T05:30:20.688Z,99057.78
2022-09-16T05:31:17.088Z,99034.13
2022-09-16T05:31:57.970Z,99043.94
2022-09-16T05:32:39.117Z,99051.88
2022-09-16T05:33:26.088Z,99037.63
2022-09-16T05:34:35.106Z,99050.47
2022-09-16T05:35:29.052Z,99045.91
2022-09-16T05:36:27.048Z,99053.50
2022-09-16T05:37:21.040Z,99047.44
2022-09-16T05:38:15.060Z,99050.13
2022-09-16T05:39:21.046Z,99046.72
2022-09-16T05:39:55.425Z,99046.03
2022-09-16T05:40:36.040Z,99051.44
2022-09-16T05:41:16.285Z,99046.03
2022-09-16T05:42:00.069Z,99041.31
2022-09-16T05:42:40.168Z,99030.84
2022-09-16T05:43:21.155Z,99051.81
2022-09-16T05:44:08.143Z,99040.63
2022-09-16T05:45:02.085Z,99039.28
2022-09-16T05:45:56.095Z,99053.31
2022-09-16T05:46:50.074Z,99044.66
2022-09-16T05:47:44.064Z,99050.94
2022-09-16T05:48:39.033Z,99047.56
2022-09-16T05:49:27.075Z,99039.63
2022-09-16T05:50:01.077Z,99046.41
2022-09-16T05:50:48.099Z,99058.91
2022-09-16T05:51:24.126Z,99048.41
2022-09-16T05:52:11.054Z,99044.72
2022-09-16T05:52:45.110Z,99048.94
2022-09-16T05:53:34.053Z,99046.53
2022-09-16T05:54:08.166Z,99050.41
2022-09-16T05:54:48.052Z,99061.78
2022-09-16T05:55:28.139Z,99049.75
2022-09-16T05:56:15.038Z,99043.50
2022-09-16T05:56:55.083Z,99046.03
2022-09-16T05:57:35.021Z,99054.84
2022-09-16T05:58:15.125Z,99048.09
2022-09-16T05:58:57.025Z,99032.25
2022-09-16T05:59:37.106Z,99054.34
2022-09-16T06:00:19.105Z,99053.31
2022-09-16T06:01:11.277Z,99056.16
2022-09-16T06:01:52.085Z,99062.63
2022-09-16T06:02:32.185Z,99053.47
2022-09-16T06:03:15.036Z,99052.47
2022-09-16T06:03:57.148Z,99053.50
2022-09-16T06:04:38.037Z,99052.84
2022-09-16T06:05:18.277Z,99058.44
2022-09-16T06:05:58.069Z,99060.19
2022-09-16T06:06:44.203Z,99053.56
2022-09-16T06:07:24.069Z,99061.66
2022-09-16T06:08:04.081Z,99050.84
2022-09-16T06:08:45.023Z,99047.44
2022-09-16T06:09:28.365Z,99045.00
2022-09-16T06:10:09.023Z,99048.22
2022-09-16T06:10:50.161Z,99035.56
2022-09-16T06:11:31.071Z,99045.00
2022-09-16T06:12:12.167Z,99047.50
2022-09-16T06:12:53.130Z,99047.38
2022-09-16T06:13:33.205Z,99045.31
2022-09-16T06:14:14.009Z,99049.75
2022-09-16T06:14:54.071Z,99051.44
2022-09-16T06:15:35.071Z,99049.06
2022-09-16T06:16:17.802Z,99047.88
2022-09-16T06:16:58.034Z,99027.25
2022-09-16T06:17:38.081Z,99055.84
2022-09-16T06:18:22.022Z,99035.19
2022-09-16T06:19:03.117Z,99053.31
2022-09-16T06:19:44.013Z,99038.22
2022-09-16T06:20:24.124Z,99049.06
2022-09-16T06:21:05.001Z,99048.03
2022-09-16T06:21:45.130Z,99054.78
2022-09-16T06:22:25.058Z,99038.69
2022-09-16T06:23:05.071Z,99051.38
2022-09-16T06:23:46.027Z,99041.56
2022-09-16T06:24:27.217Z,99052.09
2022-09-16T06:25:07.045Z,99033.44
2022-09-16T06:25:47.491Z,99056.47
2022-09-16T06:26:33.006Z,99057.66
2022-09-16T06:27:13.065Z,99046.31
2022-09-16T06:27:54.052Z,99044.28
2022-09-16T06:28:34.161Z,99053.06
2022-09-16T06:29:15.019Z,99046.81
2022-09-16T06:29:55.055Z,99038.19
2022-09-16T06:30:36.079Z,99050.06
2022-09-16T06:31:23.143Z,99037.84
2022-09-16T06:32:04.022Z,99032.25
2022-09-16T06:32:44.126Z,99032.06
2022-09-16T06:33:24.049Z,99041.00
2022-09-16T06:34:05.528Z,99053.72
2022-09-16T06:34:44.989Z,99048.31
2022-09-16T06:35:25.077Z,99046.97
2022-09-16T06:36:09.976Z,99045.97
2022-09-16T06:36:50.114Z,99053.03
2022-09-16T06:37:31.032Z,99060.13
2022-09-16T06:38:11.072Z,99066.97
2022-09-16T06:38:53.030Z,99043.44
2022-09-16T06:39:34.078Z,99046.31
2022-09-16T06:40:15.073Z,99047.47
2022-09-16T06:40:55.037Z,99056.06
2022-09-16T06:41:36.989Z,99057.13
2022-09-16T06:42:17.074Z,99050.31
2022-09-16T06:43:03.063Z,99056.44
2022-09-16T06:43:44.378Z,99050.13
2022-09-16T06:44:24.260Z,99050.63
2022-09-16T06:45:04.300Z,99056.56
2022-09-16T06:45:44.049Z,99052.63
2022-09-16T06:46:28.265Z,99052.63
2022-09-16T06:47:07.993Z,99077.16
2022-09-16T06:47:48.128Z,99053.53
2022-09-16T06:48:28.976Z,99053.72
2022-09-16T06:49:11.083Z,99051.34
2022-09-16T06:49:53.019Z,99061.16
2022-09-16T06:50:33.063Z,99045.94
2022-09-16T06:51:17.986Z,99050.63
2022-09-16T06:51:58.075Z,99055.84
2022-09-16T06:52:38.993Z,99055.34
2022-09-16T06:53:19.081Z,99067.53
2022-09-16T06:54:03.451Z,99064.16
2022-09-16T06:54:44.100Z,99041.47
2022-09-16T06:55:24.001Z,99051.78
2022-09-16T06:56:14.103Z,99060.06
2022-09-16T06:56:53.985Z,99068.88
2022-09-16T06:57:34.062Z,99046.03
2022-09-16T06:58:13.990Z,99048.59
2022-09-16T06:58:58.107Z,99052.94
2022-09-16T06:59:38.985Z,99045.84
2022-09-16T07:00:20.077Z,99056.69
2022-09-16T07:01:00.111Z,99036.75
2022-09-16T07:01:41.127Z,99046.31
2022-09-16T07:02:21.021Z,99038.38
2022-09-16T07:03:02.041Z,99043.44
2022-09-16T07:03:48.064Z,99050.56
2022-09-16T07:04:28.105Z,99050.63
2022-09-16T07:05:08.969Z,99044.63
2022-09-16T07:05:49.032Z,99043.78
2022-09-16T07:06:58.305Z,99046.81
2022-09-16T07:07:32.033Z,99063.41
2022-09-16T07:08:12.974Z,99052.59
2022-09-16T07:08:54.025Z,99075.31
2022-09-16T07:09:34.982Z,99059.75
2022-09-16T07:10:16.093Z,99061.88
2022-09-16T07:11:07.991Z,99069.16
2022-09-16T07:11:48.014Z,99047.81
2022-09-16T07:12:22.255Z,99056.91
2022-09-16T07:13:10.007Z,99064.56
2022-09-16T07:13:44.014Z,99050.63
2022-09-16T07:14:31.956Z,99056.44
2022-09-16T07:15:06.012Z,99053.00
2022-09-16T07:16:16.514Z,99047.91
2022-09-16T07:16:47.144Z,99043.44
2022-09-16T07:17:29.997Z,99070.88
2022-09-16T07:18:10.282Z,99047.84
2022-09-16T07:18:50.946Z,99054.75
2022-09-16T07:19:32.244Z,99066.31
2022-09-16T07:20:12.937Z,99063.47
2022-09-16T07:20:53.046Z,99065.97
2022-09-16T07:21:36.966Z,99059.22
2022-09-16T07:22:17.018Z,99049.03
2022-09-16T07:22:59.976Z,99066.94
2022-09-16T07:23:42.088Z,99046.81
2022-09-16T07:24:21.961Z,99062.50
2022-09-16T07:25:02.063Z,99054.53
2022-09-16T07:25:41.942Z,99065.06
2022-09-16T07:26:28.036Z,99049.50
2022-09-16T07:27:07.941Z,99058.06
2022-09-16T07:27:48.303Z,99051.41
2022-09-16T07:28:28.009Z,99060.59
2022-09-16T07:29:14.076Z,99043.03
2022-09-16T07:29:53.952Z,99065.41
2022-09-16T07:30:34.381Z,99064.66
2022-09-16T07:31:19.066Z,99061.31
2022-09-16T07:32:00.465Z,99057.56
2022-09-16T07:32:39.936Z,99050.06
2022-09-16T07:33:20.008Z,99058.03
2022-09-16T07:34:04.721Z,99063.53
2022-09-16T07:34:44.993Z,99076.19
2022-09-16T07:35:25.973Z,99064.91
2022-09-16T07:36:07.110Z,99062.03
2022-09-16T07:36:51.949Z,99073.84
2022-09-16T07:37:32.121Z,99071.19
2022-09-16T07:38:11.943Z,99077.59
2022-09-16T07:38:53.148Z,99064.06
2022-09-16T07:39:33.956Z,99063.34
2022-09-16T07:40:14.112Z,99052.00
2022-09-16T07:40:53.945Z,99060.81
2022-09-16T07:41:38.050Z,99066.84
2022-09-16T07:42:17.993Z,99059.75
2022-09-16T07:42:58.010Z,99055.47
2022-09-16T07:43:38.937Z,99061.44
2022-09-16T07:44:22.062Z,99054.25
2022-09-16T07:45:02.078Z,99058.19
2022-09-16T07:45:43.024Z,99070.34
2022-09-16T07:46:25.929Z,99064.06
2022-09-16T07:47:06.667Z,99066.44
2022-09-16T07:47:46.918Z,99061.19
2022-09-16T07:48:30.116Z,99052.50
2022-09-16T07:49:15.938Z,99058.41
2022-09-16T07:49:56.167Z,99056.53
2022-09-16T07:50:35.961Z,99076.38
2022-09-16T07:51:25.993Z,99064.22
2022-09-16T07:52:06.929Z,99063.22
2022-09-16T07:52:46.995Z,99080.50
2022-09-16T07:53:29.575Z,99066.66
2022-09-16T07:54:15.104Z,99050.69
2022-09-16T07:54:56.964Z,99065.59
2022-09-16T07:55:43.993Z,99057.38
2022-09-16T07:56:37.946Z,99059.75
2022-09-16T07:57:31.936Z,99060.59
2022-09-16T07:58:25.934Z,99070.22
2022-09-16T07:59:23.961Z,99059.25
2022-09-16T08:00:18.917Z,99064.69
2022-09-16T08:01:06.989Z,99053.78
2022-09-16T08:01:43.688Z,99048.50
2022-09-16T08:02:30.965Z,99066.03
2022-09-16T08:03:11.073Z,99047.47
2022-09-16T08:03:52.951Z,99049.13
2022-09-16T08:04:34.023Z,99058.94
2022-09-16T08:05:15.907Z,99059.47
2022-09-16T08:05:55.992Z,99063.00
2022-09-16T08:06:38.932Z,99069.50
2022-09-16T08:07:19.018Z,99067.34
2022-09-16T08:07:58.927Z,99066.13
2022-09-16T08:08:41.037Z,99054.44
2022-09-16T08:09:38.515Z,99091.53
2022-09-16T08:10:22.168Z,99053.78
2022-09-16T08:11:02.926Z,99065.19
2022-09-16T08:11:49.966Z,99049.34
2022-09-16T08:12:23.618Z,99089.28
2022-09-16T08:13:10.934Z,99070.00
2022-09-16T08:13:46.236Z,99071.03
2022-09-16T08:14:33.925Z,99050.09
2022-09-16T08:15:08.689Z,99061.44
2022-09-16T08:15:56.920Z,99057.44
2022-09-16T08:16:32.987Z,99075.59
2022-09-16T08:17:14.019Z,99071.31
2022-09-16T08:17:48.085Z,99073.13
2022-09-16T08:18:21.857Z,99098.59
2022-09-16T08:19:03.931Z,99077.81
2022-09-16T08:19:39.220Z,99067.16
2022-09-16T08:20:12.682Z,99054.13
2022-09-16T08:20:53.918Z,99061.91
2022-09-16T08:21:34.007Z,99065.91
2022-09-16T08:22:07.873Z,99057.16
2022-09-16T08:22:47.949Z,99080.63
2022-09-16T08:23:21.971Z,99071.97
2022-09-16T08:23:56.899Z,99064.72
2022-09-16T08:24:36.916Z,99061.13
2022-09-16T08:25:10.984Z,99064.47
2022-09-16T08:25:45.432Z,99070.59
2022-09-16T08:26:25.893Z,99091.47
2022-09-16T08:26:59.987Z,99073.97
2022-09-16T08:27:36.676Z,99067.19
2022-09-16T08:28:21.932Z,99065.50
2022-09-16T08:29:08.269Z,99075.34
2022-09-16T08:29:43.614Z,99076.75
2022-09-16T08:30:23.991Z,99069.66
2022-09-16T08:30:57.975Z,99080.53
2022-09-16T08:31:31.720Z,99094.50
2022-09-16T08:32:11.889Z,99094.22
2022-09-16T08:32:45.957Z,99096.91
2022-09-16T08:33:28.931Z,99085.97
2022-09-16T08:34:09.967Z,99075.31
2022-09-16T08:34:49.926Z,99100.16
2022-09-16T08:35:30.965Z,99077.91
2022-09-16T08:36:26.890Z,99070.66
2022-09-16T08:37:07.973Z,99096.28
2022-09-16T08:37:50.142Z,99087.00
2022-09-16T08:38:36.941Z,99074.59
2022-09-16T08:39:11.886Z,99073.66
2022-09-16T08:40:01.062Z,99074.38
2022-09-16T08:40:36.560Z,99071.63
2022-09-16T08:42:01.884Z,99084.34
2022-09-16T08:43:08.137Z,99071.91
2022-09-16T08:44:38.962Z,99074.59
2022-09-16T08:46:10.199Z,99074.38
2022-09-16T08:47:09.897Z,99068.78
2022-09-16T08:48:00.445Z,99070.59
2022-09-16T08:49:05.113Z,99081.91
2022-09-16T08:49:54.002Z,99063.63
2022-09-16T08:50:41.940Z,99061.53
2022-09-16T08:51:25.881Z,99071.47
2022-09-16T08:52:37.950Z,99115.66
2022-09-16T08:53:40.893Z,99097.97
2022-09-16T08:54:46.013Z,99082.19
2022-09-16T08:55:37.940Z,99077.00
2022-09-16T08:56:24.981Z,99079.06
2022-09-16T08:57:08.874Z,99089.91
2022-09-16T08:58:03.973Z,99079.78
2022-09-16T08:58:49.900Z,99093.28
2022-09-16T08:59:33.971Z,99109.56
2022-09-16T09:00:24.877Z,99084.63
2022-09-16T09:01:11.015Z,99072.09
2022-09-16T09:01:53.159Z,99067.22
2022-09-16T09:03:32.869Z,99082.19